PKWA/KWA METAR and TAF weather

Enter ICAO airport designator
Station Type Date Time Source
PKWA METAR 2022/01/26 14:20 UTC NOAA

PKWA 261420Z AUTO 06014KT 10SM CLR 27/23 A2982 RMK AO2 T02690229


Station Type Date Time Source
PKWA Decoded METAR 2022/01/26 14:20 UTC NOAA

Kwajalein, Bucholz AAF, Kwajalein KMR ATOL Airport, Marshall Islands (PKWA) 08-43N 167-44E 2M
Jan 26, 2022 - 09:20 AM EST / 2022.01.26 1420 UTC
Wind: from the ENE (060 degrees) at 16 MPH (14 KT):0
Visibility: 10 mile(s):0
Sky conditions: clear
Temperature: 80.4 F (26.9 C)
Dew Point: 73.2 F (22.9 C)
Relative Humidity: 78%
Pressure (altimeter): 29.82 in. Hg (1009 hPa)
ob: PKWA 261420Z AUTO 06014KT 10SM CLR 27/23 A2982 RMK AO2 T02690229
cycle: 14

Station Type Date Time Source
PKWA TAF 2022/01/26 12:27 UTC NOAA

TAF PKWA 261122Z 2612/2712 06015KT P6SM FEW022
FM261500 06015KT P6SM VCSH FEW020 SCT060

Example: see airport list